createdAt,value
2018-04-01T00:01:15.247Z,23.02
2018-04-01T00:03:42.248Z,20.92
2018-04-01T00:06:10.006Z,22.08
2018-04-01T00:08:36.983Z,24.58
2018-04-01T00:11:03.983Z,20.55
2018-04-01T00:13:31.815Z,21.85
2018-04-01T00:15:58.803Z,18.02
2018-04-01T00:18:25.846Z,19.85
2018-04-01T00:20:52.835Z,20.50
2018-04-01T00:23:19.865Z,19.15
2018-04-01T00:25:47.671Z,24.48
2018-04-01T00:28:14.662Z,19.98
2018-04-01T00:30:42.404Z,19.77
2018-04-01T00:33:09.381Z,20.15
2018-04-01T00:35:37.155Z,18.15
2018-04-01T00:38:04.186Z,18.92
2018-04-01T00:40:31.194Z,21.98
2018-04-01T00:42:58.186Z,19.45
2018-04-01T00:45:25.216Z,17.50
2018-04-01T00:47:52.200Z,20.85
2018-04-01T00:50:19.204Z,21.08
2018-04-01T00:52:46.220Z,22.80
2018-04-01T00:55:13.293Z,21.15
2018-04-01T00:57:40.299Z,19.67
2018-04-01T01:00:07.294Z,23.60
2018-04-01T01:02:34.288Z,20.37
2018-04-01T01:05:01.308Z,22.20
2018-04-01T01:07:28.317Z,19.98
2018-04-01T01:09:55.307Z,18.30
2018-04-01T01:12:22.332Z,23.85
2018-04-01T01:14:50.093Z,21.37
2018-04-01T01:17:17.110Z,22.50
2018-04-01T01:19:44.085Z,24.65
2018-04-01T01:22:11.133Z,21.77
2018-04-01T01:24:38.143Z,27.52
2018-04-01T01:27:05.142Z,20.90
2018-04-01T01:29:32.240Z,19.08
2018-04-01T01:31:59.256Z,25.75
2018-04-01T01:34:26.273Z,21.37
2018-04-01T01:36:53.319Z,24.80
2018-04-01T01:39:21.102Z,22.33
2018-04-01T01:41:48.127Z,23.30
2018-04-01T01:44:15.955Z,25.27
2018-04-01T01:46:43.017Z,26.40
2018-04-01T01:49:10.050Z,26.50
2018-04-01T01:51:37.038Z,21.65
2018-04-01T01:54:04.825Z,23.10
2018-04-01T01:56:31.835Z,25.92
2018-04-01T01:58:58.855Z,29.02
2018-04-01T02:01:25.853Z,25.50
2018-04-01T02:03:52.861Z,23.50
2018-04-01T02:06:19.898Z,26.20
2018-04-01T02:08:46.894Z,28.85
2018-04-01T02:11:13.910Z,30.40
2018-04-01T02:13:40.962Z,29.20
2018-04-01T02:16:08.010Z,24.85
2018-04-01T02:18:35.000Z,35.80
2018-04-01T02:21:02.000Z,30.40
2018-04-01T02:23:29.035Z,36.78
2018-04-01T02:25:56.068Z,34.10
2018-04-01T02:28:23.069Z,29.33
2018-04-01T02:30:50.091Z,29.48
2018-04-01T02:33:17.087Z,30.95
2018-04-01T02:35:44.096Z,32.90
2018-04-01T02:38:11.173Z,29.48
2018-04-01T02:40:38.180Z,31.10
2018-04-01T02:43:05.179Z,33.03
2018-04-01T02:45:32.174Z,36.63
2018-04-01T02:47:59.948Z,35.35
2018-04-01T02:50:27.717Z,37.40
2018-04-01T02:52:54.841Z,31.98
2018-04-01T02:55:21.847Z,34.53
2018-04-01T02:57:48.911Z,33.30
2018-04-01T03:00:15.940Z,29.15
2018-04-01T03:02:42.950Z,35.63
2018-04-01T03:05:10.006Z,25.40
2018-04-01T03:07:37.032Z,28.27
2018-04-01T03:10:04.856Z,25.02
2018-04-01T03:12:31.850Z,26.30
2018-04-01T03:14:59.628Z,28.52
2018-04-01T03:17:26.695Z,25.95
2018-04-01T03:19:53.713Z,27.48
2018-04-01T03:22:21.487Z,26.02
2018-04-01T03:24:48.527Z,27.67
2018-04-01T03:27:16.311Z,26.48
2018-04-01T03:29:43.314Z,27.10
2018-04-01T03:32:10.292Z,26.20
2018-04-01T03:34:37.318Z,26.08
2018-04-01T03:37:05.079Z,31.67
2018-04-01T03:39:32.843Z,25.73
2018-04-01T03:42:00.618Z,27.45
2018-04-01T03:44:28.370Z,28.02
2018-04-01T03:46:55.365Z,30.55
2018-04-01T03:49:22.392Z,24.90
2018-04-01T03:51:49.486Z,27.15
2018-04-01T03:54:16.523Z,26.45
2018-04-01T03:56:43.544Z,23.83
2018-04-01T03:59:10.586Z,25.48
2018-04-01T04:01:37.597Z,26.05
2018-04-01T04:04:05.364Z,33.33
2018-04-01T04:06:32.367Z,27.75
2018-04-01T04:08:59.338Z,25.60
2018-04-01T04:11:26.354Z,32.00
2018-04-01T04:13:53.356Z,27.23
2018-04-01T04:16:21.111Z,31.33
2018-04-01T04:18:48.846Z,25.62
2018-04-01T04:21:15.844Z,27.58
2018-04-01T04:23:42.845Z,27.50
2018-04-01T04:26:09.854Z,28.60
2018-04-01T04:28:36.873Z,28.62
2018-04-01T04:31:04.642Z,30.67
2018-04-01T04:33:31.663Z,27.60
2018-04-01T04:35:59.434Z,30.98
2018-04-01T04:38:27.227Z,27.73
2018-04-01T04:40:54.266Z,25.15
2018-04-01T04:43:21.282Z,24.75
2018-04-01T04:45:48.331Z,31.60
2018-04-01T04:48:16.098Z,27.48
2018-04-01T04:50:43.158Z,22.60
2018-04-01T04:53:10.166Z,27.98
2018-04-01T04:55:37.187Z,25.25
2018-04-01T04:58:04.191Z,26.50
2018-04-01T05:00:31.206Z,30.02
2018-04-01T05:02:58.170Z,28.67
2018-04-01T05:05:25.194Z,29.27
2018-04-01T05:07:52.183Z,27.15
2018-04-01T05:10:19.194Z,25.00
2018-04-01T05:12:46.182Z,22.00
2018-04-01T05:15:13.209Z,25.15
2018-04-01T05:17:40.251Z,23.90
2018-04-01T05:20:07.227Z,25.25
2018-04-01T05:22:34.433Z,26.87
2018-04-01T05:25:01.489Z,21.73
2018-04-01T05:27:28.521Z,22.75
2018-04-01T05:29:55.614Z,25.92
2018-04-01T05:32:22.609Z,25.12
2018-04-01T05:34:49.607Z,23.50
2018-04-01T05:37:16.649Z,22.17
2018-04-01T05:39:43.653Z,23.67
2018-04-01T05:42:10.727Z,22.95
2018-04-01T05:44:37.763Z,22.37
2018-04-01T05:47:04.768Z,19.58
2018-04-01T05:49:31.790Z,19.45
2018-04-01T05:51:58.809Z,18.95
2018-04-01T05:54:26.600Z,20.65
2018-04-01T05:56:54.643Z,21.25
2018-04-01T05:59:21.740Z,20.15
2018-04-01T06:01:48.734Z,16.77
2018-04-01T06:04:15.798Z,19.05
2018-04-01T06:06:42.862Z,20.17
2018-04-01T06:09:09.954Z,25.12
2018-04-01T06:11:37.398Z,20.35
2018-04-01T06:14:05.361Z,16.30
2018-04-01T06:16:35.063Z,17.67
2018-04-01T06:19:02.099Z,18.33
2018-04-01T06:21:29.174Z,18.75
2018-04-01T06:23:56.211Z,16.73
2018-04-01T06:26:23.489Z,15.30
2018-04-01T06:28:50.504Z,14.80
2018-04-01T06:31:17.532Z,14.77
2018-04-01T06:33:45.382Z,13.15
2018-04-01T06:36:13.302Z,14.30
2018-04-01T06:38:40.299Z,13.10
2018-04-01T06:41:08.534Z,14.75
2018-04-01T06:43:38.435Z,14.50
2018-04-01T06:46:09.375Z,14.50
2018-04-01T06:48:36.420Z,14.73
2018-04-01T06:51:03.694Z,14.23
2018-04-01T06:53:38.529Z,12.85
2018-04-01T06:56:06.929Z,15.95
2018-04-01T06:58:37.723Z,14.48
2018-04-01T07:01:07.240Z,11.27
2018-04-01T07:03:37.295Z,15.40
2018-04-01T07:06:04.452Z,12.88
2018-04-01T07:08:33.000Z,11.32
2018-04-01T07:11:00.278Z,11.95
2018-04-01T07:13:27.386Z,11.45
2018-04-01T07:15:54.523Z,11.90
2018-04-01T07:18:21.679Z,12.37
2018-04-01T07:20:48.745Z,11.25
2018-04-01T07:23:16.446Z,13.90
2018-04-01T07:25:43.485Z,11.18
2018-04-01T07:28:10.479Z,12.82
2018-04-01T07:30:37.644Z,10.85
2018-04-01T07:33:04.694Z,11.30
2018-04-01T07:35:31.764Z,11.80
2018-04-01T07:37:58.898Z,11.65
2018-04-01T07:40:26.248Z,12.07
2018-04-01T07:42:53.314Z,14.38
2018-04-01T07:45:20.314Z,12.85
2018-04-01T07:47:47.345Z,14.82
2018-04-01T07:50:14.358Z,12.40
2018-04-01T07:52:42.269Z,10.82
2018-04-01T07:55:09.335Z,11.30
2018-04-01T07:57:36.434Z,10.23
2018-04-01T08:00:03.478Z,11.48
2018-04-01T08:02:31.683Z,11.40
2018-04-01T08:04:58.788Z,10.32
2018-04-01T08:07:25.871Z,12.85
2018-04-01T08:09:52.882Z,11.05
2018-04-01T08:12:20.650Z,13.23
2018-04-01T08:14:47.824Z,11.20
2018-04-01T08:17:14.842Z,13.02
2018-04-01T08:19:42.600Z,10.80
2018-04-01T08:22:09.632Z,9.52
2018-04-01T08:24:36.798Z,10.40
2018-04-01T08:27:03.982Z,12.00
2018-04-01T08:29:31.108Z,10.82
2018-04-01T08:31:58.151Z,8.85
2018-04-01T08:34:25.165Z,10.27
2018-04-01T08:36:52.219Z,8.73
2018-04-01T08:39:19.867Z,8.82
2018-04-01T08:41:46.882Z,10.25
2018-04-01T08:44:13.888Z,8.65
2018-04-01T08:46:41.627Z,8.18
2018-04-01T08:49:08.614Z,9.88
2018-04-01T08:51:35.634Z,8.30
2018-04-01T08:54:02.640Z,8.80
2018-04-01T08:56:29.673Z,8.35
2018-04-01T08:58:56.699Z,9.50
2018-04-01T09:01:24.497Z,7.95
2018-04-01T09:03:51.542Z,6.70
2018-04-01T09:06:18.540Z,8.57
2018-04-01T09:08:45.528Z,7.93
2018-04-01T09:11:12.511Z,8.32
2018-04-01T09:13:39.523Z,7.05
2018-04-01T09:16:06.587Z,6.47
2018-04-01T09:18:33.670Z,6.57
2018-04-01T09:21:00.664Z,6.28
2018-04-01T09:23:27.782Z,7.15
2018-04-01T09:25:59.668Z,8.98
2018-04-01T09:28:26.973Z,7.60
2018-04-01T09:30:58.390Z,6.55
2018-04-01T09:36:05.418Z,8.18
2018-04-01T09:38:32.418Z,8.77
2018-04-01T09:40:59.469Z,7.37
2018-04-01T09:43:26.609Z,7.97
2018-04-01T09:48:35.470Z,10.00
2018-04-01T09:51:02.835Z,9.95
2018-04-01T09:53:31.788Z,13.00
2018-04-01T09:55:58.856Z,13.95
2018-04-01T09:58:25.894Z,7.43
2018-04-01T10:00:59.681Z,7.53
2018-04-01T10:03:27.237Z,8.00
2018-04-01T10:05:54.816Z,7.45
2018-04-01T10:08:22.424Z,7.22
2018-04-01T10:10:51.739Z,7.25
2018-04-01T10:13:19.222Z,6.87
2018-04-01T10:15:46.806Z,6.07
2018-04-01T10:18:14.330Z,7.55
2018-04-01T10:20:41.853Z,6.50
2018-04-01T10:23:09.347Z,5.20
2018-04-01T10:25:37.778Z,6.57
2018-04-01T10:28:05.387Z,7.10
2018-04-01T10:30:32.875Z,6.78
2018-04-01T10:33:00.345Z,7.50
2018-04-01T10:35:28.006Z,5.80
2018-04-01T10:37:55.602Z,7.07
2018-04-01T10:40:23.147Z,4.78
2018-04-01T10:42:50.643Z,5.00
2018-04-01T10:45:18.136Z,5.82
2018-04-01T10:47:45.609Z,4.15
2018-04-01T10:50:13.095Z,6.15
2018-04-01T10:52:40.624Z,9.52
2018-04-01T10:55:07.648Z,4.25
2018-04-01T10:57:34.662Z,4.90
2018-04-01T11:00:01.773Z,7.00
2018-04-01T11:02:29.871Z,6.15
2018-04-01T11:04:57.170Z,6.40
2018-04-01T11:07:25.200Z,6.85
2018-04-01T11:09:52.296Z,8.05
2018-04-01T11:12:19.269Z,9.13
2018-04-01T11:14:46.231Z,9.20
2018-04-01T11:17:13.232Z,9.45
2018-04-01T11:19:40.880Z,12.65
2018-04-01T11:22:07.885Z,13.13
2018-04-01T11:24:35.689Z,14.05
2018-04-01T11:27:02.743Z,11.60
2018-04-01T11:29:30.772Z,12.40
2018-04-01T11:31:58.841Z,14.85
2018-04-01T11:34:25.846Z,16.05
2018-04-01T11:36:52.859Z,12.50
2018-04-01T11:39:19.847Z,13.62
2018-04-01T11:41:46.894Z,15.93
2018-04-01T11:44:13.889Z,13.73
2018-04-01T11:46:41.274Z,13.00
2018-04-01T11:49:08.357Z,10.68
2018-04-01T11:51:35.581Z,11.27
2018-04-01T11:54:02.591Z,10.60
2018-04-01T11:56:29.615Z,10.18
2018-04-01T11:58:56.719Z,10.07
2018-04-01T12:01:23.764Z,18.05
2018-04-01T12:03:50.810Z,34.45
2018-04-01T12:06:19.275Z,14.18
2018-04-01T12:08:46.285Z,13.90
2018-04-01T12:11:14.206Z,12.65
2018-04-01T12:13:41.210Z,13.10
2018-04-01T12:16:08.246Z,13.55
2018-04-01T12:18:36.138Z,10.55
2018-04-01T12:21:03.141Z,12.68
2018-04-01T12:23:30.150Z,12.05
2018-04-01T12:25:57.164Z,12.32
2018-04-01T12:28:24.964Z,15.63
2018-04-01T12:30:51.958Z,12.35
2018-04-01T12:33:18.923Z,13.70
2018-04-01T12:35:46.043Z,13.98
2018-04-01T12:38:13.022Z,13.27
2018-04-01T12:40:40.068Z,12.65
2018-04-01T12:43:09.011Z,14.38
2018-04-01T12:45:36.045Z,12.55
2018-04-01T12:48:03.029Z,11.57
2018-04-01T12:50:30.043Z,11.50
2018-04-01T12:52:57.043Z,11.10
2018-04-01T12:55:24.128Z,10.52
2018-04-01T12:57:51.169Z,12.63
2018-04-01T13:00:18.158Z,11.07
2018-04-01T13:02:45.135Z,10.48
2018-04-01T13:05:12.107Z,9.43
2018-04-01T13:07:39.199Z,8.98
2018-04-01T13:10:06.200Z,8.60
2018-04-01T13:12:33.177Z,8.65
2018-04-01T13:15:01.056Z,9.10
2018-04-01T13:17:28.164Z,8.27
2018-04-01T13:19:55.130Z,7.95
2018-04-01T13:22:22.200Z,9.20
2018-04-01T13:24:49.479Z,8.07
2018-04-01T13:27:16.491Z,8.77
2018-04-01T13:29:44.364Z,8.98
2018-04-01T13:32:11.483Z,9.18
2018-04-01T13:34:39.326Z,9.35
2018-04-01T13:37:06.366Z,9.20
2018-04-01T13:39:33.575Z,9.38
2018-04-01T13:42:01.512Z,8.82
2018-04-01T13:44:28.931Z,8.60
2018-04-01T13:46:56.314Z,9.32
2018-04-01T13:49:23.680Z,9.85
2018-04-01T13:51:50.941Z,10.70
2018-04-01T13:54:22.651Z,8.77
2018-04-01T13:56:49.810Z,8.82
2018-04-01T13:59:17.009Z,9.90
2018-04-01T14:01:44.760Z,10.85
2018-04-01T14:04:11.839Z,10.00
2018-04-01T14:06:39.358Z,9.55
2018-04-01T14:09:06.450Z,9.80
2018-04-01T14:11:33.476Z,9.65
2018-04-01T14:14:00.825Z,10.25
2018-04-01T14:16:29.925Z,9.57
2018-04-01T14:18:58.899Z,9.30
2018-04-01T14:21:26.195Z,9.98
2018-04-01T14:23:53.819Z,11.43
2018-04-01T14:26:21.078Z,11.98
2018-04-01T14:28:49.260Z,13.73
2018-04-01T14:31:16.581Z,12.40
2018-04-01T14:33:43.734Z,11.12
2018-04-01T14:36:11.639Z,11.30
2018-04-01T14:38:38.641Z,12.73
2018-04-01T14:41:05.693Z,14.15
2018-04-01T14:43:33.004Z,13.30
2018-04-01T14:46:00.045Z,13.98
2018-04-01T14:48:28.570Z,11.43
2018-04-01T14:50:59.647Z,10.13
2018-04-01T14:53:26.794Z,11.65
2018-04-01T14:55:53.859Z,11.32
2018-04-01T14:58:20.934Z,13.07
2018-04-01T15:00:48.153Z,9.52
2018-04-01T15:03:15.220Z,9.52
2018-04-01T15:05:42.366Z,12.55
2018-04-01T15:08:09.397Z,11.23
2018-04-01T15:10:36.466Z,9.80
2018-04-01T15:13:04.326Z,9.85
2018-04-01T15:15:31.720Z,9.10
2018-04-01T15:18:00.062Z,12.23
2018-04-01T15:20:27.178Z,9.05
2018-04-01T15:22:54.299Z,10.80
2018-04-01T15:25:21.455Z,7.78
2018-04-01T15:27:48.543Z,7.35
2018-04-01T15:30:15.647Z,7.45
2018-04-01T15:32:42.805Z,8.20
2018-04-01T15:35:10.003Z,7.82
2018-04-01T15:37:39.976Z,10.38
2018-04-01T15:40:10.580Z,8.60
2018-04-01T15:42:39.869Z,10.80
2018-04-01T15:45:06.972Z,8.20
2018-04-01T15:47:37.471Z,11.35
2018-04-01T15:50:05.360Z,9.25
2018-04-01T15:52:32.793Z,11.38
2018-04-01T15:55:00.542Z,9.95
2018-04-01T15:57:27.904Z,10.27
2018-04-01T15:59:56.437Z,13.57
2018-04-01T16:02:24.340Z,11.12
2018-04-01T16:04:51.593Z,10.60
2018-04-01T16:07:19.580Z,11.18
2018-04-01T16:09:46.591Z,12.60
2018-04-01T16:12:14.458Z,8.35
2018-04-01T16:14:42.006Z,7.82
2018-04-01T16:17:09.801Z,8.40
2018-04-01T16:19:37.577Z,10.25
2018-04-01T16:22:04.667Z,7.85
2018-04-01T16:24:31.788Z,6.95
2018-04-01T16:26:59.235Z,9.45
2018-04-01T16:29:26.479Z,6.75
2018-04-01T16:31:53.908Z,7.68
2018-04-01T16:34:21.705Z,7.00
2018-04-01T16:36:48.774Z,13.23
2018-04-01T16:39:15.765Z,11.48
2018-04-01T16:41:42.763Z,6.50
2018-04-01T16:44:09.851Z,15.80
2018-04-01T16:46:37.076Z,6.93
2018-04-01T16:49:04.419Z,7.15
2018-04-01T16:51:31.411Z,8.63
2018-04-01T16:53:58.498Z,11.05
2018-04-01T16:56:25.595Z,8.57
2018-04-01T16:58:53.363Z,9.05
2018-04-01T17:01:20.364Z,13.02
2018-04-01T17:03:47.397Z,12.95
2018-04-01T17:06:14.381Z,8.73
2018-04-01T17:08:41.377Z,12.57
2018-04-01T17:11:09.006Z,13.30
2018-04-01T17:13:36.055Z,11.32
2018-04-01T17:16:03.229Z,12.60
2018-04-01T17:18:30.327Z,15.10
2018-04-01T17:20:57.388Z,11.90
2018-04-01T17:23:24.378Z,13.70
2018-04-01T17:25:51.448Z,11.73
2018-04-01T17:28:19.936Z,11.48
2018-04-01T17:30:51.118Z,11.50
2018-04-01T17:33:19.272Z,10.45
2018-04-01T17:35:47.229Z,15.98
2018-04-01T17:38:16.682Z,11.63
2018-04-01T17:43:35.307Z,11.85
2018-04-01T17:46:02.293Z,12.37
2018-04-01T17:48:29.304Z,11.23
2018-04-01T17:50:58.109Z,13.02
2018-04-01T17:53:25.216Z,9.15
2018-04-01T17:55:52.211Z,20.05
2018-04-01T17:58:19.996Z,12.15
2018-04-01T18:00:47.041Z,16.75
2018-04-01T18:03:14.071Z,13.52
2018-04-01T18:05:41.052Z,13.07
2018-04-01T18:08:08.036Z,17.70
2018-04-01T18:10:35.035Z,19.35
2018-04-01T18:13:02.029Z,12.43
2018-04-01T18:15:29.001Z,11.95
2018-04-01T18:17:56.017Z,15.05
2018-04-01T18:20:22.987Z,14.02
2018-04-01T18:22:49.957Z,15.95
2018-04-01T18:25:16.976Z,16.15
2018-04-01T18:27:44.003Z,17.35
2018-04-01T18:30:11.001Z,22.77
2018-04-01T18:32:37.984Z,14.05
2018-04-01T18:35:05.234Z,19.00
2018-04-01T18:37:32.201Z,16.42
2018-04-01T18:39:59.959Z,20.27
2018-04-01T18:42:26.916Z,23.12
2018-04-01T18:44:54.044Z,18.87
2018-04-01T18:47:21.158Z,16.20
2018-04-01T18:49:48.151Z,18.42
2018-04-01T18:52:15.916Z,16.30
2018-04-01T18:54:42.904Z,19.83
2018-04-01T18:57:09.883Z,17.83
2018-04-01T18:59:37.047Z,14.48
2018-04-01T19:02:04.051Z,20.55
2018-04-01T19:04:31.062Z,18.05
2018-04-01T19:06:58.894Z,17.48
2018-04-01T19:09:25.942Z,19.65
2018-04-01T19:11:52.929Z,22.73
2018-04-01T19:14:19.934Z,22.45
2018-04-01T19:17:13.111Z,17.27
2018-04-01T19:19:40.583Z,25.62
2018-04-01T19:22:08.896Z,26.17
2018-04-01T19:24:36.534Z,17.58
2018-04-01T19:27:04.038Z,20.70
2018-04-01T19:29:31.506Z,20.95
2018-04-01T19:31:58.980Z,21.90
2018-04-01T19:34:26.443Z,19.12
2018-04-01T19:36:53.937Z,15.88
2018-04-01T19:39:21.471Z,26.58
2018-04-01T19:41:48.914Z,21.33
2018-04-01T19:44:16.378Z,19.58
2018-04-01T19:46:43.874Z,23.35
2018-04-01T19:49:11.338Z,23.40
2018-04-01T19:51:38.815Z,23.62
2018-04-01T19:54:06.289Z,26.77
2018-04-01T19:56:33.757Z,22.95
2018-04-01T19:59:01.227Z,28.70
2018-04-01T20:01:28.753Z,28.98
2018-04-01T20:03:56.235Z,27.83
2018-04-01T20:06:24.030Z,27.67
2018-04-01T20:08:51.565Z,31.77
2018-04-01T20:11:19.050Z,29.23
2018-04-01T20:13:46.600Z,32.17
2018-04-01T20:16:14.131Z,34.95
2018-04-01T20:18:41.630Z,34.65
2018-04-01T20:21:09.132Z,36.30
2018-04-01T20:23:36.609Z,44.83
2018-04-01T20:26:04.076Z,49.75
2018-04-01T20:28:34.573Z,44.60
2018-04-01T20:31:02.049Z,42.15
2018-04-01T20:33:30.310Z,40.83
2018-04-01T20:35:57.781Z,48.30
2018-04-01T20:38:25.315Z,43.55
2018-04-01T20:40:53.078Z,46.75
2018-04-01T20:43:20.561Z,40.85
2018-04-01T20:45:48.063Z,43.22
2018-04-01T20:48:15.554Z,55.28
2018-04-01T20:50:45.010Z,47.70
2018-04-01T20:53:12.529Z,53.67
2018-04-01T20:55:40.041Z,44.95
2018-04-01T20:58:07.639Z,44.00
2018-04-01T21:00:35.235Z,38.58
2018-04-01T21:03:02.898Z,43.05
2018-04-01T21:05:30.574Z,40.83
2018-04-01T21:07:58.224Z,44.83
2018-04-01T21:10:26.396Z,44.30
2018-04-01T21:12:54.280Z,35.17
2018-04-01T21:15:22.200Z,44.30
2018-04-01T21:17:50.033Z,34.47
2018-04-01T21:20:18.281Z,43.25
2018-04-01T21:22:46.033Z,36.72
2018-04-01T21:25:13.588Z,38.25
2018-04-01T21:27:41.090Z,40.20
2018-04-01T21:30:08.570Z,31.75
2018-04-01T21:32:36.283Z,35.15
2018-04-01T21:35:04.098Z,36.67
2018-04-01T21:37:33.153Z,32.90
2018-04-01T21:40:00.819Z,36.30
2018-04-01T21:42:28.533Z,31.20
2018-04-01T21:44:56.068Z,34.83
2018-04-01T21:47:23.762Z,26.55
2018-04-01T21:49:53.298Z,34.45
2018-04-01T21:52:25.261Z,32.08
2018-04-01T21:54:52.918Z,32.13
2018-04-01T21:57:22.987Z,32.28
2018-04-01T22:00:00.575Z,27.42
2018-04-01T22:02:29.585Z,36.78
2018-04-01T22:04:57.414Z,31.00
2018-04-01T22:07:25.892Z,36.42
2018-04-01T22:09:53.668Z,34.90
2018-04-01T22:12:24.123Z,27.17
2018-04-01T22:14:53.111Z,31.42
2018-04-01T22:17:22.937Z,28.25
2018-04-01T22:19:51.157Z,28.95
2018-04-01T22:22:18.942Z,31.75
2018-04-01T22:24:46.576Z,25.75
2018-04-01T22:27:14.899Z,31.60
2018-04-01T22:29:42.571Z,23.08
2018-04-01T22:32:10.076Z,28.35
2018-04-01T22:34:37.626Z,32.05
2018-04-01T22:37:05.154Z,27.98
2018-04-01T22:39:32.873Z,26.90
2018-04-01T22:42:01.670Z,24.23
2018-04-01T22:44:29.268Z,25.27
2018-04-01T22:46:56.891Z,28.02
2018-04-01T22:49:25.199Z,27.20
2018-04-01T22:51:52.754Z,31.98
2018-04-01T22:54:20.391Z,34.83
2018-04-01T22:56:48.088Z,28.75
2018-04-01T22:59:17.139Z,28.85
2018-04-01T23:01:44.727Z,27.02
2018-04-01T23:04:12.464Z,30.08
2018-04-01T23:06:40.141Z,24.80
2018-04-01T23:09:07.725Z,27.87
2018-04-01T23:11:35.321Z,24.58
2018-04-01T23:14:02.837Z,25.15
2018-04-01T23:16:30.391Z,35.17
2018-04-01T23:18:57.951Z,26.85
2018-04-01T23:21:26.222Z,24.35
2018-04-01T23:23:53.766Z,27.45
2018-04-01T23:26:21.240Z,22.48
2018-04-01T23:28:48.723Z,22.10
2018-04-01T23:31:16.335Z,23.80
2018-04-01T23:33:43.810Z,24.05
2018-04-01T23:36:11.427Z,24.92
2018-04-01T23:38:38.904Z,19.83
2018-04-01T23:41:06.395Z,21.85
2018-04-01T23:43:33.952Z,23.17
2018-04-01T23:46:01.641Z,24.30
2018-04-01T23:48:29.166Z,21.42
2018-04-01T23:50:57.607Z,26.42
2018-04-01T23:53:25.089Z,21.23
2018-04-01T23:55:52.620Z,17.42
2018-04-01T23:58:30.005Z,19.52
